createdAt,value
2019-03-20T00:02:39.477Z,1.00
2019-03-20T00:07:43.312Z,0.80
2019-03-20T00:12:47.134Z,1.00
2019-03-20T00:17:50.970Z,2.00
2019-03-20T00:22:54.827Z,0.00
2019-03-20T00:27:58.792Z,1.25
2019-03-20T00:33:02.667Z,2.00
2019-03-20T00:38:06.509Z,1.75
2019-03-20T00:43:10.292Z,1.00
2019-03-20T00:48:14.153Z,1.00
2019-03-20T00:53:17.957Z,1.20
2019-03-20T00:58:21.726Z,1.00
2019-03-20T01:03:25.500Z,1.00
2019-03-20T01:08:29.344Z,1.00
2019-03-20T01:13:33.144Z,1.00
2019-03-20T01:18:36.919Z,1.00
2019-03-20T01:23:40.699Z,1.00
2019-03-20T01:28:44.466Z,1.75
2019-03-20T01:33:48.227Z,1.00
2019-03-20T01:38:52.083Z,1.00
2019-03-20T01:43:55.851Z,1.00
2019-03-20T01:48:59.712Z,1.25
2019-03-20T01:54:03.475Z,1.00
2019-03-20T01:59:07.261Z,1.00
2019-03-20T02:04:11.121Z,2.00
2019-03-20T02:09:14.900Z,1.50
2019-03-20T02:14:18.692Z,0.25
2019-03-20T02:19:22.769Z,0.25
2019-03-20T02:24:26.579Z,1.00
2019-03-20T02:29:30.347Z,0.50
2019-03-20T02:34:34.118Z,1.00
2019-03-20T02:39:37.940Z,1.00
2019-03-20T02:44:41.707Z,1.00
2019-03-20T02:49:45.494Z,1.00
2019-03-20T02:54:49.301Z,1.00
2019-03-20T02:59:53.057Z,1.00
2019-03-20T03:04:57.338Z,1.00
2019-03-20T03:10:01.108Z,0.80
2019-03-20T03:15:05.455Z,0.00
2019-03-20T03:20:09.226Z,1.00
2019-03-20T03:25:13.020Z,1.00
2019-03-20T03:30:17.004Z,1.00
2019-03-20T03:35:21.164Z,0.80
2019-03-20T03:40:24.967Z,1.00
2019-03-20T03:45:28.788Z,0.25
2019-03-20T03:50:32.760Z,1.00
2019-03-20T03:55:36.563Z,1.00
2019-03-20T04:00:40.424Z,1.00
2019-03-20T04:05:44.241Z,0.00
2019-03-20T04:10:48.024Z,1.00
2019-03-20T04:15:51.880Z,1.25
2019-03-20T04:20:55.776Z,1.00
2019-03-20T04:25:59.698Z,0.75
2019-03-20T04:31:03.556Z,1.00
2019-03-20T04:36:07.366Z,1.00
2019-03-20T04:41:11.166Z,1.00
2019-03-20T04:46:15.009Z,0.00
2019-03-20T04:51:20.086Z,1.00
2019-03-20T04:56:23.939Z,1.00
2019-03-20T05:01:27.744Z,1.00
2019-03-20T05:06:31.530Z,0.00
2019-03-20T05:11:35.427Z,1.00
2019-03-20T05:16:39.241Z,0.80
2019-03-20T05:21:43.029Z,0.50
2019-03-20T05:26:46.843Z,1.00
2019-03-20T05:31:50.721Z,1.00
2019-03-20T05:36:54.555Z,1.00
2019-03-20T05:41:58.362Z,0.75
2019-03-20T05:47:02.200Z,0.00
2019-03-20T05:52:05.979Z,1.00
2019-03-20T05:57:09.835Z,1.00
2019-03-20T06:02:13.618Z,1.00
2019-03-20T06:07:21.735Z,1.00
2019-03-20T06:12:23.040Z,1.00
2019-03-20T06:17:26.833Z,1.00
2019-03-20T06:22:30.607Z,1.00
2019-03-20T06:27:34.408Z,1.00
2019-03-20T06:32:38.227Z,1.00
2019-03-20T06:37:42.011Z,0.00
2019-03-20T06:42:45.874Z,1.00
2019-03-20T06:47:49.661Z,1.00
2019-03-20T06:52:53.455Z,0.00
2019-03-20T06:57:57.242Z,1.00
2019-03-20T07:03:02.045Z,0.50
2019-03-20T07:08:07.243Z,0.75
2019-03-20T07:13:11.028Z,0.40
2019-03-20T07:18:14.798Z,0.00
2019-03-20T07:23:18.583Z,0.00
2019-03-20T07:28:22.427Z,1.00
2019-03-20T07:33:26.269Z,1.00
2019-03-20T07:38:30.051Z,1.00
2019-03-20T07:43:33.829Z,0.25
2019-03-20T07:48:37.902Z,0.00
2019-03-20T07:53:41.698Z,1.00
2019-03-20T07:58:45.545Z,5.25
2019-03-20T08:03:49.480Z,7.00
2019-03-20T08:08:53.334Z,8.60
2019-03-20T08:13:57.174Z,5.40
2019-03-20T08:19:01.032Z,7.40
2019-03-20T08:24:04.835Z,5.00
2019-03-20T08:29:08.621Z,6.00
2019-03-20T08:34:12.499Z,6.00
2019-03-20T08:39:16.307Z,4.50
2019-03-20T08:44:20.102Z,4.40
2019-03-20T08:49:23.997Z,4.00
2019-03-20T08:54:27.784Z,5.75
2019-03-20T08:59:31.567Z,5.00
2019-03-20T09:04:35.847Z,3.00
2019-03-20T09:09:40.233Z,4.00
2019-03-20T09:14:44.013Z,3.50
2019-03-20T09:19:47.866Z,3.00
2019-03-20T09:24:51.691Z,2.50
2019-03-20T09:29:55.488Z,6.00
2019-03-20T09:34:59.284Z,3.00
2019-03-20T09:40:03.226Z,3.00
2019-03-20T09:45:08.687Z,3.80
2019-03-20T09:50:14.181Z,3.00
2019-03-20T09:55:18.136Z,4.80
2019-03-20T10:00:22.720Z,3.00
2019-03-20T10:05:26.499Z,3.80
2019-03-20T10:10:30.275Z,3.00
2019-03-20T10:15:34.121Z,3.00
2019-03-20T10:20:37.879Z,3.60
2019-03-20T10:25:44.837Z,3.00
2019-03-20T10:30:47.156Z,3.00
2019-03-20T10:35:50.955Z,2.75
2019-03-20T10:40:54.717Z,3.00
2019-03-20T10:45:58.508Z,3.00
2019-03-20T10:51:02.301Z,3.00
2019-03-20T10:56:06.085Z,3.20
2019-03-20T11:01:09.839Z,3.00
2019-03-20T11:06:13.623Z,3.00
2019-03-20T11:11:26.499Z,3.00
2019-03-20T11:16:22.943Z,3.50
2019-03-20T11:21:26.720Z,3.00
2019-03-20T11:26:30.532Z,3.00
2019-03-20T11:31:34.311Z,3.20
2019-03-20T11:36:38.098Z,3.00
2019-03-20T11:41:41.876Z,3.00
2019-03-20T11:46:45.813Z,2.75
2019-03-20T11:51:49.625Z,3.00
2019-03-20T11:56:53.399Z,2.00
2019-03-20T12:01:57.166Z,3.00
2019-03-20T12:07:00.956Z,2.00
2019-03-20T12:12:04.713Z,2.80
2019-03-20T12:17:08.517Z,6.75
2019-03-20T12:22:12.360Z,8.00
2019-03-20T12:27:16.128Z,6.00
2019-03-20T12:32:19.895Z,7.60
2019-03-20T12:37:23.680Z,5.25
2019-03-20T12:42:27.437Z,4.25
2019-03-20T12:47:31.202Z,3.00
2019-03-20T12:52:34.983Z,3.25
2019-03-20T12:57:38.756Z,2.00
2019-03-20T13:02:42.518Z,2.00
2019-03-20T13:07:46.307Z,2.00
2019-03-20T13:12:50.075Z,2.25
2019-03-20T13:17:53.876Z,3.00
2019-03-20T13:23:00.692Z,2.00
2019-03-20T13:28:04.552Z,2.00
2019-03-20T13:33:08.338Z,2.00
2019-03-20T13:38:12.118Z,3.00
2019-03-20T13:43:15.877Z,3.00
2019-03-20T13:48:19.662Z,3.00
2019-03-20T13:53:23.628Z,3.00
2019-03-20T13:58:27.586Z,3.00
2019-03-20T14:03:31.359Z,2.75
2019-03-20T14:08:35.140Z,2.50
2019-03-20T14:13:38.916Z,2.80
2019-03-20T14:18:42.757Z,2.25
2019-03-20T14:23:46.607Z,2.75
2019-03-20T14:28:50.424Z,2.00
2019-03-20T14:33:54.267Z,2.50
2019-03-20T14:38:58.039Z,2.00
2019-03-20T14:44:01.833Z,2.00
2019-03-20T14:49:05.598Z,2.00
2019-03-20T14:54:09.365Z,2.00
2019-03-20T14:59:13.128Z,3.20
2019-03-20T15:04:16.888Z,2.50
2019-03-20T15:09:20.662Z,2.75
2019-03-20T15:14:24.457Z,2.00
2019-03-20T15:19:28.217Z,2.40
2019-03-20T15:24:31.985Z,2.80
2019-03-20T15:29:35.740Z,2.00
2019-03-20T15:34:39.513Z,2.00
2019-03-20T15:39:43.275Z,2.20
2019-03-20T15:44:47.046Z,3.60
2019-03-20T15:49:50.813Z,2.75
2019-03-20T15:54:54.579Z,3.00
2019-03-20T15:59:58.378Z,2.25
2019-03-20T16:05:02.197Z,3.00
2019-03-20T16:10:08.300Z,3.40
2019-03-20T16:15:13.560Z,3.00
2019-03-20T16:20:17.684Z,4.00
2019-03-20T16:25:21.558Z,5.80
2019-03-20T16:30:25.367Z,3.00
2019-03-20T16:35:29.152Z,3.20
2019-03-20T16:40:33.007Z,3.00
2019-03-20T16:45:36.867Z,3.00
2019-03-20T16:50:40.712Z,2.00
2019-03-20T16:55:44.485Z,2.75
2019-03-20T17:00:48.273Z,2.00
2019-03-20T17:05:52.119Z,2.00
2019-03-20T17:10:55.931Z,2.80
2019-03-20T17:15:59.777Z,2.00
2019-03-20T17:21:03.784Z,2.00
2019-03-20T17:26:07.585Z,1.75
2019-03-20T17:31:11.442Z,2.75
2019-03-20T17:36:15.222Z,2.00
2019-03-20T17:41:19.002Z,2.00
2019-03-20T17:46:22.864Z,2.00
2019-03-20T17:51:26.735Z,2.00
2019-03-20T17:56:30.534Z,2.00
2019-03-20T18:01:34.292Z,1.25
2019-03-20T18:06:38.240Z,2.00
2019-03-20T18:11:47.345Z,2.00
2019-03-20T18:16:47.528Z,1.00
2019-03-20T18:21:51.427Z,2.00
2019-03-20T18:26:55.245Z,2.60
2019-03-20T18:31:59.109Z,2.00
2019-03-20T18:37:02.958Z,1.00
2019-03-20T18:42:06.818Z,2.00
2019-03-20T18:47:10.571Z,1.25
2019-03-20T18:52:14.346Z,2.00
2019-03-20T18:57:18.162Z,1.00
2019-03-20T19:02:23.043Z,1.00
2019-03-20T19:07:26.950Z,3.00
2019-03-20T19:12:30.899Z,1.00
2019-03-20T19:17:34.652Z,1.75
2019-03-20T19:22:38.700Z,1.00
2019-03-20T19:27:42.468Z,1.00
2019-03-20T19:32:46.250Z,2.00
2019-03-20T19:37:50.028Z,1.75
2019-03-20T19:42:53.837Z,1.00
2019-03-20T19:47:57.827Z,1.25
2019-03-20T19:53:01.600Z,1.25
2019-03-20T19:58:05.420Z,1.00
2019-03-20T20:03:09.215Z,1.00
2019-03-20T20:08:13.108Z,1.80
2019-03-20T20:13:16.890Z,2.00
2019-03-20T20:18:20.682Z,1.00
2019-03-20T20:23:24.656Z,1.00
2019-03-20T20:28:28.505Z,1.00
2019-03-20T20:33:32.318Z,2.00
2019-03-20T20:38:36.148Z,1.20
2019-03-20T20:43:40.074Z,1.00
2019-03-20T20:48:43.908Z,2.00
2019-03-20T20:53:47.764Z,1.75
2019-03-20T20:58:51.617Z,2.00
2019-03-20T21:03:55.481Z,2.00
2019-03-20T21:08:59.254Z,1.00
2019-03-20T21:14:03.130Z,1.40
2019-03-20T21:19:38.741Z,2.00
2019-03-20T21:24:43.352Z,2.00
2019-03-20T21:30:27.727Z,1.60
2019-03-20T21:36:06.362Z,1.75
2019-03-20T21:41:54.820Z,1.60
2019-03-20T21:47:19.517Z,2.00
2019-03-20T21:52:23.850Z,1.75
2019-03-20T21:57:51.825Z,1.25
2019-03-20T22:02:55.153Z,2.00
2019-03-20T22:07:59.460Z,2.25
2019-03-20T22:13:18.166Z,2.00
2019-03-20T22:19:02.135Z,1.00
2019-03-20T22:24:36.714Z,2.00
2019-03-20T22:29:41.160Z,2.00
2019-03-20T22:35:27.891Z,2.00
2019-03-20T22:41:23.519Z,1.00
2019-03-20T22:47:20.736Z,1.00
2019-03-20T22:52:46.276Z,1.00
2019-03-20T22:58:17.231Z,1.00
2019-03-20T23:03:26.739Z,2.00
2019-03-20T23:08:31.240Z,2.00
2019-03-20T23:13:41.486Z,1.25
2019-03-20T23:18:41.616Z,2.00
2019-03-20T23:23:46.087Z,1.25
2019-03-20T23:28:50.625Z,1.00
2019-03-20T23:33:55.074Z,1.00
2019-03-20T23:38:59.438Z,1.60
2019-03-20T23:44:03.841Z,1.00
2019-03-20T23:49:11.957Z,1.00
2019-03-20T23:54:18.832Z,1.00
2019-03-20T23:59:23.201Z,2.00
